Terminal Aerodrome Forecast
Issued by NWS Albany, NY

Home | Current Version | Previous Version | Text Only | Print | Product List | Glossary On
Versions: 1 2 3 4 5 6 7 8 9 10 11 12 13 14 15 16 17 18 19 20 21
000
FTUS41 KALY 011000 AAB
TAFGFL
TAF AMD
KGFL 011003Z 0110/0206 00000KT 1/2SM FG VV002
      TEMPO 0111/0112 2SM BR SCT002
     FM011200 00000KT 4SM BR SCT002
      TEMPO 0112/0113 2SM BR BKN002
     FM011300 19005KT P6SM SCT035
     FM011900 19006KT P6SM VCSH SCT045
     FM020000 VRB03KT P6SM SKC
     FM020300 00000KT 3SM BR SKC=

USA.gov is the U.S. government's official web portal to all federal, state and local government web resources and services.